sensor_id;sensor_type;location;lat;lon;timestamp;P1;durP1;ratioP1;P2;durP2;ratioP2
48853;SDS011;34673;52.808;17.856;2023-03-08T00:02:15;18.42;;;9.32;;
48853;SDS011;34673;52.808;17.856;2023-03-08T00:04:42;17.27;;;8.70;;
48853;SDS011;34673;52.808;17.856;2023-03-08T00:07:10;16.25;;;8.98;;
48853;SDS011;34673;52.808;17.856;2023-03-08T00:09:37;15.63;;;9.10;;
48853;SDS011;34673;52.808;17.856;2023-03-08T00:12:04;17.63;;;8.98;;
48853;SDS011;34673;52.808;17.856;2023-03-08T00:14:33;12.50;;;7.55;;
48853;SDS011;34673;52.808;17.856;2023-03-08T00:17:00;15.10;;;8.27;;
48853;SDS011;34673;52.808;17.856;2023-03-08T00:19:28;19.08;;;10.65;;
48853;SDS011;34673;52.808;17.856;2023-03-08T00:21:55;14.23;;;7.13;;
48853;SDS011;34673;52.808;17.856;2023-03-08T00:24:23;12.77;;;7.45;;
48853;SDS011;34673;52.808;17.856;2023-03-08T00:26:50;15.27;;;7.65;;
48853;SDS011;34673;52.808;17.856;2023-03-08T00:29:17;13.38;;;7.72;;
48853;SDS011;34673;52.808;17.856;2023-03-08T00:31:44;15.63;;;7.80;;
48853;SDS011;34673;52.808;17.856;2023-03-08T00:34:11;13.30;;;7.07;;
48853;SDS011;34673;52.808;17.856;2023-03-08T00:36:39;15.32;;;7.40;;
48853;SDS011;34673;52.808;17.856;2023-03-08T00:39:07;14.23;;;7.30;;
48853;SDS011;34673;52.808;17.856;2023-03-08T00:41:35;14.25;;;6.95;;
48853;SDS011;34673;52.808;17.856;2023-03-08T00:44:03;14.18;;;7.15;;
48853;SDS011;34673;52.808;17.856;2023-03-08T00:46:30;13.57;;;6.88;;
48853;SDS011;34673;52.808;17.856;2023-03-08T00:48:57;14.65;;;7.20;;
48853;SDS011;34673;52.808;17.856;2023-03-08T00:51:25;19.15;;;7.30;;
48853;SDS011;34673;52.808;17.856;2023-03-08T00:53:52;17.50;;;7.90;;
48853;SDS011;34673;52.808;17.856;2023-03-08T00:56:20;13.20;;;7.40;;
48853;SDS011;34673;52.808;17.856;2023-03-08T00:58:47;15.38;;;7.68;;
48853;SDS011;34673;52.808;17.856;2023-03-08T01:01:15;14.00;;;7.65;;
48853;SDS011;34673;52.808;17.856;2023-03-08T01:03:46;15.05;;;7.00;;
48853;SDS011;34673;52.808;17.856;2023-03-08T01:06:14;14.13;;;7.20;;
48853;SDS011;34673;52.808;17.856;2023-03-08T01:08:42;15.48;;;6.93;;
48853;SDS011;34673;52.808;17.856;2023-03-08T01:11:20;12.65;;;7.25;;
48853;SDS011;34673;52.808;17.856;2023-03-08T01:13:49;13.43;;;7.93;;
48853;SDS011;34673;52.808;17.856;2023-03-08T01:16:50;15.00;;;8.10;;
48853;SDS011;34673;52.808;17.856;2023-03-08T01:19:11;13.45;;;7.53;;
48853;SDS011;34673;52.808;17.856;2023-03-08T01:21:40;17.65;;;7.40;;
48853;SDS011;34673;52.808;17.856;2023-03-08T01:24:07;15.50;;;7.95;;
48853;SDS011;34673;52.808;17.856;2023-03-08T01:26:34;16.13;;;7.40;;
48853;SDS011;34673;52.808;17.856;2023-03-08T01:29:01;16.40;;;7.38;;
48853;SDS011;34673;52.808;17.856;2023-03-08T01:31:28;13.23;;;7.22;;
48853;SDS011;34673;52.808;17.856;2023-03-08T01:33:58;12.68;;;6.68;;
48853;SDS011;34673;52.808;17.856;2023-03-08T01:36:25;13.55;;;7.65;;
48853;SDS011;34673;52.808;17.856;2023-03-08T01:38:53;15.98;;;8.30;;
48853;SDS011;34673;52.808;17.856;2023-03-08T01:41:25;15.75;;;7.80;;
48853;SDS011;34673;52.808;17.856;2023-03-08T01:43:55;13.27;;;7.32;;
48853;SDS011;34673;52.808;17.856;2023-03-08T01:46:24;14.25;;;7.78;;
48853;SDS011;34673;52.808;17.856;2023-03-08T01:49:07;12.07;;;6.70;;
48853;SDS011;34673;52.808;17.856;2023-03-08T01:52:02;18.35;;;7.82;;
48853;SDS011;34673;52.808;17.856;2023-03-08T01:57:04;16.92;;;6.88;;
48853;SDS011;34673;52.808;17.856;2023-03-08T01:59:35;15.10;;;7.20;;
48853;SDS011;34673;52.808;17.856;2023-03-08T02:02:03;15.30;;;6.57;;
48853;SDS011;34673;52.808;17.856;2023-03-08T02:04:32;12.70;;;6.63;;
48853;SDS011;34673;52.808;17.856;2023-03-08T02:07:00;15.68;;;6.80;;
48853;SDS011;34673;52.808;17.856;2023-03-08T02:09:27;13.93;;;6.57;;
48853;SDS011;34673;52.808;17.856;2023-03-08T02:11:58;13.15;;;6.80;;
48853;SDS011;34673;52.808;17.856;2023-03-08T02:14:28;9.88;;;6.18;;
48853;SDS011;34673;52.808;17.856;2023-03-08T02:16:55;16.30;;;6.60;;
48853;SDS011;34673;52.808;17.856;2023-03-08T02:19:25;13.38;;;6.78;;
48853;SDS011;34673;52.808;17.856;2023-03-08T02:22:05;14.02;;;6.38;;
48853;SDS011;34673;52.808;17.856;2023-03-08T02:24:34;13.45;;;6.65;;
48853;SDS011;34673;52.808;17.856;2023-03-08T02:27:03;11.80;;;6.38;;
48853;SDS011;34673;52.808;17.856;2023-03-08T02:29:43;13.30;;;6.15;;
48853;SDS011;34673;52.808;17.856;2023-03-08T02:32:10;11.95;;;5.95;;
48853;SDS011;34673;52.808;17.856;2023-03-08T02:34:38;11.45;;;6.25;;
48853;SDS011;34673;52.808;17.856;2023-03-08T02:37:05;11.70;;;5.97;;
48853;SDS011;34673;52.808;17.856;2023-03-08T02:39:32;14.00;;;6.15;;
48853;SDS011;34673;52.808;17.856;2023-03-08T02:41:59;11.50;;;5.43;;
48853;SDS011;34673;52.808;17.856;2023-03-08T02:44:26;13.10;;;6.10;;
48853;SDS011;34673;52.808;17.856;2023-03-08T02:46:53;13.25;;;6.05;;
48853;SDS011;34673;52.808;17.856;2023-03-08T02:49:20;12.60;;;5.95;;
48853;SDS011;34673;52.808;17.856;2023-03-08T02:51:47;12.50;;;5.70;;
48853;SDS011;34673;52.808;17.856;2023-03-08T02:54:15;11.40;;;5.55;;
48853;SDS011;34673;52.808;17.856;2023-03-08T02:56:42;13.52;;;5.65;;
48853;SDS011;34673;52.808;17.856;2023-03-08T02:59:12;13.10;;;6.60;;
48853;SDS011;34673;52.808;17.856;2023-03-08T03:01:40;17.55;;;6.40;;
48853;SDS011;34673;52.808;17.856;2023-03-08T03:04:08;15.80;;;5.45;;
48853;SDS011;34673;52.808;17.856;2023-03-08T03:06:35;12.77;;;5.50;;
48853;SDS011;34673;52.808;17.856;2023-03-08T03:09:06;13.23;;;6.07;;
48853;SDS011;34673;52.808;17.856;2023-03-08T03:11:34;10.32;;;5.28;;
48853;SDS011;34673;52.808;17.856;2023-03-08T03:14:02;13.82;;;5.40;;
48853;SDS011;34673;52.808;17.856;2023-03-08T03:16:35;14.38;;;5.82;;
48853;SDS011;34673;52.808;17.856;2023-03-08T03:19:03;12.07;;;5.20;;
48853;SDS011;34673;52.808;17.856;2023-03-08T03:21:30;8.80;;;4.97;;
48853;SDS011;34673;52.808;17.856;2023-03-08T03:23:57;12.23;;;5.80;;
48853;SDS011;34673;52.808;17.856;2023-03-08T03:26:32;11.05;;;5.25;;
48853;SDS011;34673;52.808;17.856;2023-03-08T03:28:59;8.93;;;4.47;;
48853;SDS011;34673;52.808;17.856;2023-03-08T03:31:31;11.88;;;5.38;;
48853;SDS011;34673;52.808;17.856;2023-03-08T03:33:58;11.98;;;5.10;;
48853;SDS011;34673;52.808;17.856;2023-03-08T03:36:26;13.13;;;6.07;;
48853;SDS011;34673;52.808;17.856;2023-03-08T03:38:55;12.65;;;5.57;;
48853;SDS011;34673;52.808;17.856;2023-03-08T03:41:22;15.57;;;5.88;;
48853;SDS011;34673;52.808;17.856;2023-03-08T03:43:59;13.52;;;5.38;;
48853;SDS011;34673;52.808;17.856;2023-03-08T03:46:27;10.90;;;5.75;;
48853;SDS011;34673;52.808;17.856;2023-03-08T03:48:56;11.70;;;5.07;;
48853;SDS011;34673;52.808;17.856;2023-03-08T03:51:26;15.43;;;5.90;;
48853;SDS011;34673;52.808;17.856;2023-03-08T03:54:05;14.60;;;6.07;;
48853;SDS011;34673;52.808;17.856;2023-03-08T03:56:33;12.93;;;6.00;;
48853;SDS011;34673;52.808;17.856;2023-03-08T03:59:01;13.35;;;5.53;;
48853;SDS011;34673;52.808;17.856;2023-03-08T04:01:29;13.88;;;5.57;;
48853;SDS011;34673;52.808;17.856;2023-03-08T04:04:14;10.68;;;5.32;;
48853;SDS011;34673;52.808;17.856;2023-03-08T04:06:43;14.25;;;6.45;;
48853;SDS011;34673;52.808;17.856;2023-03-08T04:09:15;11.70;;;5.63;;
48853;SDS011;34673;52.808;17.856;2023-03-08T04:11:49;12.57;;;5.90;;
48853;SDS011;34673;52.808;17.856;2023-03-08T04:14:19;13.00;;;5.95;;
48853;SDS011;34673;52.808;17.856;2023-03-08T04:16:49;14.80;;;6.00;;
48853;SDS011;34673;52.808;17.856;2023-03-08T04:19:25;12.68;;;5.95;;
48853;SDS011;34673;52.808;17.856;2023-03-08T04:21:55;9.85;;;5.35;;
48853;SDS011;34673;52.808;17.856;2023-03-08T04:24:26;12.50;;;5.70;;
48853;SDS011;34673;52.808;17.856;2023-03-08T04:26:57;13.82;;;6.03;;
48853;SDS011;34673;52.808;17.856;2023-03-08T04:29:26;12.25;;;6.03;;
48853;SDS011;34673;52.808;17.856;2023-03-08T04:31:53;16.30;;;6.70;;
48853;SDS011;34673;52.808;17.856;2023-03-08T04:34:35;12.40;;;5.93;;
48853;SDS011;34673;52.808;17.856;2023-03-08T04:37:03;10.40;;;5.78;;
48853;SDS011;34673;52.808;17.856;2023-03-08T04:39:31;14.43;;;6.50;;
48853;SDS011;34673;52.808;17.856;2023-03-08T04:41:58;11.93;;;5.95;;
48853;SDS011;34673;52.808;17.856;2023-03-08T04:44:28;12.75;;;5.78;;
48853;SDS011;34673;52.808;17.856;2023-03-08T04:46:56;14.57;;;6.13;;
48853;SDS011;34673;52.808;17.856;2023-03-08T04:49:34;13.93;;;6.00;;
48853;SDS011;34673;52.808;17.856;2023-03-08T04:52:02;14.90;;;5.82;;
48853;SDS011;34673;52.808;17.856;2023-03-08T04:54:32;13.57;;;6.18;;
48853;SDS011;34673;52.808;17.856;2023-03-08T04:57:08;12.07;;;6.30;;
48853;SDS011;34673;52.808;17.856;2023-03-08T04:59:37;14.32;;;6.82;;
48853;SDS011;34673;52.808;17.856;2023-03-08T05:02:05;15.98;;;6.70;;
48853;SDS011;34673;52.808;17.856;2023-03-08T05:04:34;12.57;;;6.30;;
48853;SDS011;34673;52.808;17.856;2023-03-08T05:07:01;14.23;;;6.82;;
48853;SDS011;34673;52.808;17.856;2023-03-08T05:09:32;12.57;;;6.68;;
48853;SDS011;34673;52.808;17.856;2023-03-08T05:12:00;12.57;;;6.82;;
48853;SDS011;34673;52.808;17.856;2023-03-08T05:14:39;16.10;;;7.00;;
48853;SDS011;34673;52.808;17.856;2023-03-08T05:17:06;12.32;;;6.25;;
48853;SDS011;34673;52.808;17.856;2023-03-08T05:19:34;15.02;;;6.88;;
48853;SDS011;34673;52.808;17.856;2023-03-08T05:22:02;12.20;;;6.38;;
48853;SDS011;34673;52.808;17.856;2023-03-08T05:24:32;12.38;;;6.47;;
48853;SDS011;34673;52.808;17.856;2023-03-08T05:27:04;13.05;;;6.88;;
48853;SDS011;34673;52.808;17.856;2023-03-08T05:29:32;14.15;;;6.88;;
48853;SDS011;34673;52.808;17.856;2023-03-08T05:32:00;12.80;;;6.40;;
48853;SDS011;34673;52.808;17.856;2023-03-08T05:34:32;16.33;;;7.57;;
48853;SDS011;34673;52.808;17.856;2023-03-08T05:37:01;20.50;;;7.10;;
48853;SDS011;34673;52.808;17.856;2023-03-08T05:39:31;13.95;;;7.07;;
48853;SDS011;34673;52.808;17.856;2023-03-08T05:42:04;14.77;;;7.57;;
48853;SDS011;34673;52.808;17.856;2023-03-08T05:44:38;16.50;;;7.85;;
48853;SDS011;34673;52.808;17.856;2023-03-08T05:47:07;16.50;;;7.97;;
48853;SDS011;34673;52.808;17.856;2023-03-08T05:49:35;20.73;;;7.68;;
48853;SDS011;34673;52.808;17.856;2023-03-08T05:52:03;15.85;;;7.32;;
48853;SDS011;34673;52.808;17.856;2023-03-08T05:54:31;13.65;;;7.45;;
48853;SDS011;34673;52.808;17.856;2023-03-08T05:57:02;16.08;;;7.15;;
48853;SDS011;34673;52.808;17.856;2023-03-08T05:59:30;16.17;;;7.40;;
48853;SDS011;34673;52.808;17.856;2023-03-08T06:02:00;16.75;;;7.30;;
48853;SDS011;34673;52.808;17.856;2023-03-08T06:04:38;14.38;;;7.40;;
48853;SDS011;34673;52.808;17.856;2023-03-08T06:07:05;17.20;;;7.65;;
48853;SDS011;34673;52.808;17.856;2023-03-08T06:09:39;15.73;;;7.75;;
48853;SDS011;34673;52.808;17.856;2023-03-08T06:12:11;16.25;;;7.78;;
48853;SDS011;34673;52.808;17.856;2023-03-08T06:14:38;14.38;;;6.82;;
48853;SDS011;34673;52.808;17.856;2023-03-08T06:17:06;18.02;;;7.40;;
48853;SDS011;34673;52.808;17.856;2023-03-08T06:19:36;14.75;;;7.70;;
48853;SDS011;34673;52.808;17.856;2023-03-08T06:22:03;15.07;;;7.20;;
48853;SDS011;34673;52.808;17.856;2023-03-08T06:24:31;18.65;;;7.80;;
48853;SDS011;34673;52.808;17.856;2023-03-08T06:27:00;17.70;;;7.90;;
48853;SDS011;34673;52.808;17.856;2023-03-08T06:29:27;14.93;;;7.38;;
48853;SDS011;34673;52.808;17.856;2023-03-08T06:31:55;15.93;;;8.63;;
48853;SDS011;34673;52.808;17.856;2023-03-08T06:34:22;16.92;;;7.93;;
48853;SDS011;34673;52.808;17.856;2023-03-08T06:36:52;14.55;;;7.05;;
48853;SDS011;34673;52.808;17.856;2023-03-08T06:39:19;17.25;;;8.07;;
48853;SDS011;34673;52.808;17.856;2023-03-08T06:41:47;15.88;;;7.28;;
48853;SDS011;34673;52.808;17.856;2023-03-08T06:44:14;17.67;;;7.55;;
48853;SDS011;34673;52.808;17.856;2023-03-08T06:46:41;14.85;;;7.70;;
48853;SDS011;34673;52.808;17.856;2023-03-08T06:49:08;16.65;;;7.43;;
48853;SDS011;34673;52.808;17.856;2023-03-08T06:51:37;13.48;;;6.65;;
48853;SDS011;34673;52.808;17.856;2023-03-08T06:54:04;16.30;;;7.40;;
48853;SDS011;34673;52.808;17.856;2023-03-08T06:56:31;16.90;;;7.30;;
48853;SDS011;34673;52.808;17.856;2023-03-08T06:58:59;16.13;;;7.57;;
48853;SDS011;34673;52.808;17.856;2023-03-08T07:01:26;14.80;;;7.10;;
48853;SDS011;34673;52.808;17.856;2023-03-08T07:03:53;14.00;;;7.25;;
48853;SDS011;34673;52.808;17.856;2023-03-08T07:06:20;15.52;;;6.72;;
48853;SDS011;34673;52.808;17.856;2023-03-08T07:08:47;12.73;;;6.40;;
48853;SDS011;34673;52.808;17.856;2023-03-08T07:11:14;15.20;;;6.97;;
48853;SDS011;34673;52.808;17.856;2023-03-08T07:13:41;17.42;;;7.72;;
48853;SDS011;34673;52.808;17.856;2023-03-08T07:16:09;17.10;;;7.20;;
48853;SDS011;34673;52.808;17.856;2023-03-08T07:18:38;15.53;;;6.60;;
48853;SDS011;34673;52.808;17.856;2023-03-08T07:21:05;12.18;;;6.53;;
48853;SDS011;34673;52.808;17.856;2023-03-08T07:23:33;13.13;;;6.85;;
48853;SDS011;34673;52.808;17.856;2023-03-08T07:26:04;13.00;;;6.90;;
48853;SDS011;34673;52.808;17.856;2023-03-08T07:28:32;16.73;;;6.78;;
48853;SDS011;34673;52.808;17.856;2023-03-08T07:31:00;14.57;;;6.35;;
48853;SDS011;34673;52.808;17.856;2023-03-08T07:33:27;13.85;;;6.20;;
48853;SDS011;34673;52.808;17.856;2023-03-08T07:35:54;13.02;;;6.53;;
48853;SDS011;34673;52.808;17.856;2023-03-08T07:38:21;11.30;;;5.97;;
48853;SDS011;34673;52.808;17.856;2023-03-08T07:40:52;11.82;;;6.13;;
48853;SDS011;34673;52.808;17.856;2023-03-08T07:43:20;11.10;;;5.80;;
48853;SDS011;34673;52.808;17.856;2023-03-08T07:46:02;15.27;;;6.25;;
48853;SDS011;34673;52.808;17.856;2023-03-08T07:48:30;16.85;;;7.43;;
48853;SDS011;34673;52.808;17.856;2023-03-08T07:51:01;11.05;;;5.93;;
48853;SDS011;34673;52.808;17.856;2023-03-08T07:53:35;13.52;;;6.22;;
48853;SDS011;34673;52.808;17.856;2023-03-08T07:56:02;12.27;;;6.22;;
48853;SDS011;34673;52.808;17.856;2023-03-08T07:58:30;12.60;;;6.25;;
48853;SDS011;34673;52.808;17.856;2023-03-08T08:00:57;12.25;;;6.05;;
48853;SDS011;34673;52.808;17.856;2023-03-08T08:03:25;11.23;;;5.90;;
48853;SDS011;34673;52.808;17.856;2023-03-08T08:05:52;12.30;;;6.07;;
48853;SDS011;34673;52.808;17.856;2023-03-08T08:08:19;11.27;;;5.93;;
48853;SDS011;34673;52.808;17.856;2023-03-08T08:10:47;15.38;;;6.53;;
48853;SDS011;34673;52.808;17.856;2023-03-08T08:13:14;13.85;;;5.85;;
48853;SDS011;34673;52.808;17.856;2023-03-08T08:15:41;12.80;;;6.05;;
48853;SDS011;34673;52.808;17.856;2023-03-08T08:18:08;14.48;;;6.03;;
48853;SDS011;34673;52.808;17.856;2023-03-08T08:20:35;10.43;;;5.43;;
48853;SDS011;34673;52.808;17.856;2023-03-08T08:23:04;11.23;;;6.22;;
48853;SDS011;34673;52.808;17.856;2023-03-08T08:25:32;14.35;;;5.60;;
48853;SDS011;34673;52.808;17.856;2023-03-08T08:27:59;11.68;;;5.28;;
48853;SDS011;34673;52.808;17.856;2023-03-08T08:30:26;14.25;;;5.32;;
48853;SDS011;34673;52.808;17.856;2023-03-08T08:32:53;13.88;;;6.32;;
48853;SDS011;34673;52.808;17.856;2023-03-08T08:35:21;12.88;;;5.28;;
48853;SDS011;34673;52.808;17.856;2023-03-08T08:38:02;12.10;;;5.03;;
48853;SDS011;34673;52.808;17.856;2023-03-08T08:40:29;13.13;;;5.22;;
48853;SDS011;34673;52.808;17.856;2023-03-08T08:42:56;15.20;;;6.05;;
48853;SDS011;34673;52.808;17.856;2023-03-08T08:45:24;16.23;;;5.93;;
48853;SDS011;34673;52.808;17.856;2023-03-08T08:47:51;13.98;;;5.90;;
48853;SDS011;34673;52.808;17.856;2023-03-08T08:50:18;12.40;;;5.95;;
48853;SDS011;34673;52.808;17.856;2023-03-08T08:52:45;11.55;;;5.20;;
48853;SDS011;34673;52.808;17.856;2023-03-08T08:55:12;10.82;;;5.55;;
48853;SDS011;34673;52.808;17.856;2023-03-08T08:57:40;10.80;;;5.15;;
48853;SDS011;34673;52.808;17.856;2023-03-08T09:00:07;10.75;;;4.93;;
48853;SDS011;34673;52.808;17.856;2023-03-08T09:02:35;9.25;;;4.95;;
48853;SDS011;34673;52.808;17.856;2023-03-08T09:05:03;17.65;;;6.95;;
48853;SDS011;34673;52.808;17.856;2023-03-08T09:07:30;23.95;;;8.98;;
48853;SDS011;34673;52.808;17.856;2023-03-08T09:09:57;14.93;;;6.10;;
48853;SDS011;34673;52.808;17.856;2023-03-08T09:12:27;13.15;;;6.72;;
48853;SDS011;34673;52.808;17.856;2023-03-08T09:14:55;17.92;;;7.88;;
48853;SDS011;34673;52.808;17.856;2023-03-08T09:17:22;7.80;;;4.93;;
48853;SDS011;34673;52.808;17.856;2023-03-08T09:19:49;15.25;;;6.15;;
48853;SDS011;34673;52.808;17.856;2023-03-08T09:22:17;14.18;;;5.90;;
48853;SDS011;34673;52.808;17.856;2023-03-08T09:24:44;14.15;;;5.60;;
48853;SDS011;34673;52.808;17.856;2023-03-08T09:27:14;11.10;;;4.43;;
48853;SDS011;34673;52.808;17.856;2023-03-08T09:29:41;10.43;;;4.85;;
48853;SDS011;34673;52.808;17.856;2023-03-08T09:32:08;14.18;;;6.22;;
48853;SDS011;34673;52.808;17.856;2023-03-08T09:34:36;13.25;;;5.38;;
48853;SDS011;34673;52.808;17.856;2023-03-08T09:37:03;7.82;;;4.15;;
48853;SDS011;34673;52.808;17.856;2023-03-08T09:39:33;10.68;;;4.30;;
48853;SDS011;34673;52.808;17.856;2023-03-08T09:42:03;10.25;;;4.05;;
48853;SDS011;34673;52.808;17.856;2023-03-08T09:47:36;9.63;;;4.10;;
48853;SDS011;34673;52.808;17.856;2023-03-08T09:55:07;8.27;;;3.97;;
48853;SDS011;34673;52.808;17.856;2023-03-08T09:57:50;8.77;;;4.13;;
48853;SDS011;34673;52.808;17.856;2023-03-08T10:00:20;8.38;;;4.30;;
48853;SDS011;34673;52.808;17.856;2023-03-08T10:05:49;7.90;;;4.18;;
48853;SDS011;34673;52.808;17.856;2023-03-08T10:11:17;8.77;;;3.53;;
48853;SDS011;34673;52.808;17.856;2023-03-08T10:13:50;7.15;;;3.10;;
48853;SDS011;34673;52.808;17.856;2023-03-08T10:16:26;8.65;;;3.10;;
48853;SDS011;34673;52.808;17.856;2023-03-08T10:21:32;8.02;;;3.15;;
48853;SDS011;34673;52.808;17.856;2023-03-08T10:24:06;8.07;;;3.10;;
48853;SDS011;34673;52.808;17.856;2023-03-08T10:26:37;7.70;;;3.28;;
48853;SDS011;34673;52.808;17.856;2023-03-08T10:29:05;9.30;;;3.38;;
48853;SDS011;34673;52.808;17.856;2023-03-08T10:31:32;8.85;;;3.45;;
48853;SDS011;34673;52.808;17.856;2023-03-08T10:34:01;10.45;;;3.67;;
48853;SDS011;34673;52.808;17.856;2023-03-08T10:36:32;7.90;;;3.13;;
48853;SDS011;34673;52.808;17.856;2023-03-08T10:39:00;11.88;;;3.40;;
48853;SDS011;34673;52.808;17.856;2023-03-08T10:41:31;6.55;;;2.78;;
48853;SDS011;34673;52.808;17.856;2023-03-08T10:44:14;7.05;;;3.17;;
48853;SDS011;34673;52.808;17.856;2023-03-08T10:46:56;7.22;;;3.17;;
48853;SDS011;34673;52.808;17.856;2023-03-08T10:49:24;10.30;;;3.53;;
48853;SDS011;34673;52.808;17.856;2023-03-08T10:51:57;7.93;;;3.30;;
48853;SDS011;34673;52.808;17.856;2023-03-08T10:54:26;7.97;;;3.60;;
48853;SDS011;34673;52.808;17.856;2023-03-08T10:56:56;17.90;;;8.43;;
48853;SDS011;34673;52.808;17.856;2023-03-08T10:59:27;25.88;;;10.55;;
48853;SDS011;34673;52.808;17.856;2023-03-08T11:02:14;8.20;;;3.28;;
48853;SDS011;34673;52.808;17.856;2023-03-08T11:04:55;16.30;;;7.10;;
48853;SDS011;34673;52.808;17.856;2023-03-08T11:07:25;30.77;;;13.80;;
48853;SDS011;34673;52.808;17.856;2023-03-08T11:10:13;14.02;;;6.90;;
48853;SDS011;34673;52.808;17.856;2023-03-08T11:12:43;10.23;;;3.80;;
48853;SDS011;34673;52.808;17.856;2023-03-08T11:15:11;9.50;;;4.72;;
48853;SDS011;34673;52.808;17.856;2023-03-08T11:17:50;8.25;;;2.50;;
48853;SDS011;34673;52.808;17.856;2023-03-08T11:20:26;7.60;;;3.10;;
48853;SDS011;34673;52.808;17.856;2023-03-08T11:23:02;7.28;;;2.65;;
48853;SDS011;34673;52.808;17.856;2023-03-08T11:31:10;14.93;;;3.40;;
48853;SDS011;34673;52.808;17.856;2023-03-08T11:40:00;10.25;;;5.22;;
48853;SDS011;34673;52.808;17.856;2023-03-08T11:45:20;9.88;;;4.20;;
48853;SDS011;34673;52.808;17.856;2023-03-08T11:50:59;11.52;;;4.22;;
48853;SDS011;34673;52.808;17.856;2023-03-08T11:56:56;7.47;;;3.00;;
48853;SDS011;34673;52.808;17.856;2023-03-08T11:59:45;8.85;;;2.53;;
48853;SDS011;34673;52.808;17.856;2023-03-08T12:02:19;4.22;;;1.80;;
48853;SDS011;34673;52.808;17.856;2023-03-08T12:04:57;6.35;;;1.98;;
48853;SDS011;34673;52.808;17.856;2023-03-08T12:10:22;4.53;;;2.03;;
48853;SDS011;34673;52.808;17.856;2023-03-08T12:18:17;5.75;;;2.00;;
48853;SDS011;34673;52.808;17.856;2023-03-08T12:21:31;6.75;;;2.17;;
48853;SDS011;34673;52.808;17.856;2023-03-08T12:26:50;5.47;;;2.55;;
48853;SDS011;34673;52.808;17.856;2023-03-08T12:29:36;5.40;;;2.40;;
48853;SDS011;34673;52.808;17.856;2023-03-08T12:32:09;8.13;;;2.60;;
48853;SDS011;34673;52.808;17.856;2023-03-08T12:34:40;5.63;;;2.60;;
48853;SDS011;34673;52.808;17.856;2023-03-08T12:39:57;5.03;;;2.85;;
48853;SDS011;34673;52.808;17.856;2023-03-08T12:42:33;8.93;;;3.90;;
48853;SDS011;34673;52.808;17.856;2023-03-08T12:45:07;8.65;;;3.45;;
48853;SDS011;34673;52.808;17.856;2023-03-08T12:50:42;8.00;;;3.97;;
48853;SDS011;34673;52.808;17.856;2023-03-08T12:53:29;9.15;;;3.40;;
48853;SDS011;34673;52.808;17.856;2023-03-08T12:56:21;8.50;;;3.70;;
48853;SDS011;34673;52.808;17.856;2023-03-08T13:03:57;6.27;;;3.40;;
48853;SDS011;34673;52.808;17.856;2023-03-08T13:09:12;8.10;;;3.67;;
48853;SDS011;34673;52.808;17.856;2023-03-08T13:12:08;10.32;;;3.42;;
48853;SDS011;34673;52.808;17.856;2023-03-08T13:15:01;10.02;;;3.78;;
48853;SDS011;34673;52.808;17.856;2023-03-08T13:18:07;7.10;;;3.88;;
48853;SDS011;34673;52.808;17.856;2023-03-08T13:23:25;10.55;;;3.65;;
48853;SDS011;34673;52.808;17.856;2023-03-08T13:29:14;7.68;;;3.47;;
48853;SDS011;34673;52.808;17.856;2023-03-08T13:31:43;6.38;;;3.28;;
48853;SDS011;34673;52.808;17.856;2023-03-08T13:34:21;7.27;;;3.60;;
48853;SDS011;34673;52.808;17.856;2023-03-08T13:36:58;8.52;;;3.45;;
48853;SDS011;34673;52.808;17.856;2023-03-08T13:39:27;8.48;;;5.00;;
48853;SDS011;34673;52.808;17.856;2023-03-08T13:42:06;11.05;;;3.92;;
48853;SDS011;34673;52.808;17.856;2023-03-08T13:44:34;14.57;;;5.30;;
48853;SDS011;34673;52.808;17.856;2023-03-08T13:47:13;11.25;;;4.22;;
48853;SDS011;34673;52.808;17.856;2023-03-08T13:49:49;7.85;;;4.10;;
48853;SDS011;34673;52.808;17.856;2023-03-08T13:52:22;8.77;;;3.70;;
48853;SDS011;34673;52.808;17.856;2023-03-08T13:54:53;9.07;;;3.55;;
48853;SDS011;34673;52.808;17.856;2023-03-08T13:57:26;9.18;;;3.75;;
48853;SDS011;34673;52.808;17.856;2023-03-08T13:59:57;9.70;;;4.00;;
48853;SDS011;34673;52.808;17.856;2023-03-08T14:02:30;9.68;;;4.20;;
48853;SDS011;34673;52.808;17.856;2023-03-08T14:04:58;8.27;;;4.10;;
48853;SDS011;34673;52.808;17.856;2023-03-08T14:07:26;7.75;;;4.05;;
48853;SDS011;34673;52.808;17.856;2023-03-08T14:09:55;9.00;;;3.78;;
48853;SDS011;34673;52.808;17.856;2023-03-08T14:12:23;10.43;;;4.35;;
48853;SDS011;34673;52.808;17.856;2023-03-08T14:14:55;7.45;;;3.80;;
48853;SDS011;34673;52.808;17.856;2023-03-08T14:17:25;8.52;;;3.95;;
48853;SDS011;34673;52.808;17.856;2023-03-08T14:20:01;12.60;;;4.40;;
48853;SDS011;34673;52.808;17.856;2023-03-08T14:22:44;8.10;;;3.65;;
48853;SDS011;34673;52.808;17.856;2023-03-08T14:25:21;9.05;;;4.20;;
48853;SDS011;34673;52.808;17.856;2023-03-08T14:27:51;8.73;;;4.03;;
48853;SDS011;34673;52.808;17.856;2023-03-08T14:30:20;12.57;;;4.30;;
48853;SDS011;34673;52.808;17.856;2023-03-08T14:33:03;8.25;;;4.65;;
48853;SDS011;34673;52.808;17.856;2023-03-08T14:35:36;8.40;;;4.53;;
48853;SDS011;34673;52.808;17.856;2023-03-08T14:40:48;9.73;;;4.93;;
48853;SDS011;34673;52.808;17.856;2023-03-08T14:43:17;9.23;;;4.68;;
48853;SDS011;34673;52.808;17.856;2023-03-08T14:46:07;9.07;;;4.95;;
48853;SDS011;34673;52.808;17.856;2023-03-08T14:48:35;12.38;;;5.15;;
48853;SDS011;34673;52.808;17.856;2023-03-08T14:51:04;9.95;;;4.93;;
48853;SDS011;34673;52.808;17.856;2023-03-08T14:53:55;13.55;;;6.35;;
48853;SDS011;34673;52.808;17.856;2023-03-08T14:56:28;9.73;;;5.15;;
48853;SDS011;34673;52.808;17.856;2023-03-08T14:59:00;11.35;;;5.35;;
48853;SDS011;34673;52.808;17.856;2023-03-08T15:01:34;8.73;;;5.05;;
48853;SDS011;34673;52.808;17.856;2023-03-08T15:04:05;9.60;;;5.22;;
48853;SDS011;34673;52.808;17.856;2023-03-08T15:06:48;9.27;;;5.20;;
48853;SDS011;34673;52.808;17.856;2023-03-08T15:09:18;8.48;;;4.60;;
48853;SDS011;34673;52.808;17.856;2023-03-08T15:11:46;11.13;;;5.20;;
48853;SDS011;34673;52.808;17.856;2023-03-08T15:14:16;9.98;;;4.55;;
48853;SDS011;34673;52.808;17.856;2023-03-08T15:16:44;11.38;;;4.22;;
48853;SDS011;34673;52.808;17.856;2023-03-08T15:19:11;9.35;;;4.25;;
48853;SDS011;34673;52.808;17.856;2023-03-08T15:21:39;10.13;;;4.60;;
48853;SDS011;34673;52.808;17.856;2023-03-08T15:24:09;10.10;;;4.60;;
48853;SDS011;34673;52.808;17.856;2023-03-08T15:26:43;9.93;;;4.20;;
48853;SDS011;34673;52.808;17.856;2023-03-08T15:31:51;11.07;;;4.88;;
48853;SDS011;34673;52.808;17.856;2023-03-08T15:34:19;7.95;;;4.05;;
48853;SDS011;34673;52.808;17.856;2023-03-08T15:36:47;10.98;;;4.95;;
48853;SDS011;34673;52.808;17.856;2023-03-08T15:39:15;10.55;;;4.90;;
48853;SDS011;34673;52.808;17.856;2023-03-08T15:41:43;9.40;;;4.50;;
48853;SDS011;34673;52.808;17.856;2023-03-08T15:44:10;11.05;;;4.75;;
48853;SDS011;34673;52.808;17.856;2023-03-08T15:46:37;10.77;;;4.68;;
48853;SDS011;34673;52.808;17.856;2023-03-08T15:49:05;11.20;;;4.68;;
48853;SDS011;34673;52.808;17.856;2023-03-08T15:51:33;10.40;;;4.68;;
48853;SDS011;34673;52.808;17.856;2023-03-08T15:54:02;14.60;;;5.40;;
48853;SDS011;34673;52.808;17.856;2023-03-08T15:56:30;9.43;;;4.38;;
48853;SDS011;34673;52.808;17.856;2023-03-08T15:58:57;9.02;;;4.95;;
48853;SDS011;34673;52.808;17.856;2023-03-08T16:01:25;10.57;;;5.40;;